Terminal Aerodrome Forecast
Issued by NWS Billings, MT

Home | Current Version | Previous Version | Text Only | Print | Product List | Glossary On
Versions: 1 2 3 4 5 6 7 8 9 10 11 12 13 14 15 16 17 18 19 20 21 22 23 24 25 26 27 28 29 30
000
FTUS45 KBYZ 291733
TAFSHR
TAF
KSHR 291733Z 2918/3018 33006KT P6SM FEW025 SCT100
     FM292000 08006KT P6SM SCT100
     FM300200 13006KT P6SM SCT100
     FM301400 12006KT P6SM BKN100=

USA.gov is the U.S. government's official web portal to all federal, state and local government web resources and services.